sensor_id;sensor_type;location;lat;lon;timestamp;P1;durP1;ratioP1;P2;durP2;ratioP2
63714;SDS011;49858;48.956;9.076;2023-05-23T00:01:15;13.82;;;8.13;;
63714;SDS011;49858;48.956;9.076;2023-05-23T00:03:43;9.70;;;5.50;;
63714;SDS011;49858;48.956;9.076;2023-05-23T00:06:12;14.82;;;8.18;;
63714;SDS011;49858;48.956;9.076;2023-05-23T00:08:41;23.45;;;8.23;;
63714;SDS011;49858;48.956;9.076;2023-05-23T00:11:10;21.45;;;6.32;;
63714;SDS011;49858;48.956;9.076;2023-05-23T00:13:38;11.43;;;4.90;;
63714;SDS011;49858;48.956;9.076;2023-05-23T00:16:07;13.32;;;7.75;;
63714;SDS011;49858;48.956;9.076;2023-05-23T00:18:35;16.40;;;8.20;;
63714;SDS011;49858;48.956;9.076;2023-05-23T00:21:03;17.60;;;8.32;;
63714;SDS011;49858;48.956;9.076;2023-05-23T00:23:31;17.45;;;8.10;;
63714;SDS011;49858;48.956;9.076;2023-05-23T00:26:01;13.98;;;7.63;;
63714;SDS011;49858;48.956;9.076;2023-05-23T00:28:31;22.90;;;9.15;;
63714;SDS011;49858;48.956;9.076;2023-05-23T00:30:59;13.05;;;6.38;;
63714;SDS011;49858;48.956;9.076;2023-05-23T00:33:28;14.45;;;6.82;;
63714;SDS011;49858;48.956;9.076;2023-05-23T00:35:58;22.70;;;10.52;;
63714;SDS011;49858;48.956;9.076;2023-05-23T00:38:26;17.85;;;9.32;;
63714;SDS011;49858;48.956;9.076;2023-05-23T00:40:54;17.67;;;8.75;;
63714;SDS011;49858;48.956;9.076;2023-05-23T00:43:23;15.23;;;8.10;;
63714;SDS011;49858;48.956;9.076;2023-05-23T00:45:52;20.55;;;9.50;;
63714;SDS011;49858;48.956;9.076;2023-05-23T00:48:20;10.15;;;5.55;;
63714;SDS011;49858;48.956;9.076;2023-05-23T00:50:49;14.50;;;7.60;;
63714;SDS011;49858;48.956;9.076;2023-05-23T00:53:17;20.27;;;9.25;;
63714;SDS011;49858;48.956;9.076;2023-05-23T00:55:45;18.05;;;9.23;;
63714;SDS011;49858;48.956;9.076;2023-05-23T00:58:13;24.77;;;10.77;;
63714;SDS011;49858;48.956;9.076;2023-05-23T01:00:42;8.55;;;6.35;;
63714;SDS011;49858;48.956;9.076;2023-05-23T01:03:12;21.17;;;8.32;;
63714;SDS011;49858;48.956;9.076;2023-05-23T01:05:44;15.82;;;8.80;;
63714;SDS011;49858;48.956;9.076;2023-05-23T01:08:12;17.85;;;10.13;;
63714;SDS011;49858;48.956;9.076;2023-05-23T01:10:41;7.75;;;4.55;;
63714;SDS011;49858;48.956;9.076;2023-05-23T01:13:12;17.88;;;9.25;;
63714;SDS011;49858;48.956;9.076;2023-05-23T01:15:47;24.40;;;10.52;;
63714;SDS011;49858;48.956;9.076;2023-05-23T01:18:26;21.50;;;8.90;;
63714;SDS011;49858;48.956;9.076;2023-05-23T01:21:00;17.67;;;8.82;;
63714;SDS011;49858;48.956;9.076;2023-05-23T01:26:36;24.45;;;10.70;;
63714;SDS011;49858;48.956;9.076;2023-05-23T01:29:20;25.10;;;11.30;;
63714;SDS011;49858;48.956;9.076;2023-05-23T01:31:51;31.13;;;13.00;;
63714;SDS011;49858;48.956;9.076;2023-05-23T01:34:20;32.95;;;11.75;;
63714;SDS011;49858;48.956;9.076;2023-05-23T01:36:49;41.00;;;15.68;;
63714;SDS011;49858;48.956;9.076;2023-05-23T01:39:20;30.50;;;13.82;;
63714;SDS011;49858;48.956;9.076;2023-05-23T01:41:48;20.23;;;11.25;;
63714;SDS011;49858;48.956;9.076;2023-05-23T01:44:18;30.35;;;11.90;;
63714;SDS011;49858;48.956;9.076;2023-05-23T01:46:46;22.92;;;11.05;;
63714;SDS011;49858;48.956;9.076;2023-05-23T01:49:15;24.48;;;13.02;;
63714;SDS011;49858;48.956;9.076;2023-05-23T01:51:44;22.48;;;10.57;;
63714;SDS011;49858;48.956;9.076;2023-05-23T01:54:13;25.88;;;13.00;;
63714;SDS011;49858;48.956;9.076;2023-05-23T01:56:45;18.10;;;9.95;;
63714;SDS011;49858;48.956;9.076;2023-05-23T01:59:14;28.75;;;9.82;;
63714;SDS011;49858;48.956;9.076;2023-05-23T02:01:44;29.33;;;11.38;;
63714;SDS011;49858;48.956;9.076;2023-05-23T02:04:12;24.35;;;12.45;;
63714;SDS011;49858;48.956;9.076;2023-05-23T02:06:41;9.93;;;5.05;;
63714;SDS011;49858;48.956;9.076;2023-05-23T02:09:11;10.68;;;7.03;;
63714;SDS011;49858;48.956;9.076;2023-05-23T02:11:39;11.13;;;6.93;;
63714;SDS011;49858;48.956;9.076;2023-05-23T02:14:08;20.85;;;10.32;;
63714;SDS011;49858;48.956;9.076;2023-05-23T02:16:36;12.70;;;6.72;;
63714;SDS011;49858;48.956;9.076;2023-05-23T02:19:05;15.15;;;8.30;;
63714;SDS011;49858;48.956;9.076;2023-05-23T02:21:33;11.93;;;6.07;;
63714;SDS011;49858;48.956;9.076;2023-05-23T02:24:02;9.70;;;6.40;;
63714;SDS011;49858;48.956;9.076;2023-05-23T02:26:30;15.95;;;9.15;;
63714;SDS011;49858;48.956;9.076;2023-05-23T02:28:58;25.95;;;10.68;;
63714;SDS011;49858;48.956;9.076;2023-05-23T02:31:26;39.88;;;12.10;;
63714;SDS011;49858;48.956;9.076;2023-05-23T02:33:54;12.93;;;6.57;;
63714;SDS011;49858;48.956;9.076;2023-05-23T02:36:23;22.02;;;10.73;;
63714;SDS011;49858;48.956;9.076;2023-05-23T02:38:52;19.35;;;10.80;;
63714;SDS011;49858;48.956;9.076;2023-05-23T02:41:20;19.75;;;11.70;;
63714;SDS011;49858;48.956;9.076;2023-05-23T02:43:48;25.05;;;11.00;;
63714;SDS011;49858;48.956;9.076;2023-05-23T02:46:16;22.45;;;12.75;;
63714;SDS011;49858;48.956;9.076;2023-05-23T02:48:44;32.75;;;16.15;;
63714;SDS011;49858;48.956;9.076;2023-05-23T02:51:12;21.88;;;11.68;;
63714;SDS011;49858;48.956;9.076;2023-05-23T02:53:41;26.83;;;12.23;;
63714;SDS011;49858;48.956;9.076;2023-05-23T02:56:09;27.88;;;13.30;;
63714;SDS011;49858;48.956;9.076;2023-05-23T02:58:38;30.35;;;13.98;;
63714;SDS011;49858;48.956;9.076;2023-05-23T03:01:06;28.73;;;14.30;;
63714;SDS011;49858;48.956;9.076;2023-05-23T03:03:35;32.80;;;15.25;;
63714;SDS011;49858;48.956;9.076;2023-05-23T03:06:02;27.90;;;11.75;;
63714;SDS011;49858;48.956;9.076;2023-05-23T03:08:31;18.52;;;8.07;;
63714;SDS011;49858;48.956;9.076;2023-05-23T03:11:00;23.63;;;10.65;;
63714;SDS011;49858;48.956;9.076;2023-05-23T03:13:29;23.45;;;13.68;;
63714;SDS011;49858;48.956;9.076;2023-05-23T03:15:57;27.17;;;12.18;;
63714;SDS011;49858;48.956;9.076;2023-05-23T03:18:25;5.18;;;3.95;;
63714;SDS011;49858;48.956;9.076;2023-05-23T03:20:54;16.77;;;7.72;;
63714;SDS011;49858;48.956;9.076;2023-05-23T03:23:22;23.42;;;10.38;;
63714;SDS011;49858;48.956;9.076;2023-05-23T03:25:50;9.13;;;4.95;;
63714;SDS011;49858;48.956;9.076;2023-05-23T03:28:20;4.20;;;3.55;;
63714;SDS011;49858;48.956;9.076;2023-05-23T03:30:50;31.80;;;14.18;;
63714;SDS011;49858;48.956;9.076;2023-05-23T03:33:17;19.42;;;9.77;;
63714;SDS011;49858;48.956;9.076;2023-05-23T03:35:46;31.40;;;11.23;;
63714;SDS011;49858;48.956;9.076;2023-05-23T03:38:13;12.82;;;8.18;;
63714;SDS011;49858;48.956;9.076;2023-05-23T03:40:41;32.58;;;14.52;;
63714;SDS011;49858;48.956;9.076;2023-05-23T03:43:09;21.13;;;10.40;;
63714;SDS011;49858;48.956;9.076;2023-05-23T03:45:41;6.93;;;5.50;;
63714;SDS011;49858;48.956;9.076;2023-05-23T03:48:12;15.30;;;7.60;;
63714;SDS011;49858;48.956;9.076;2023-05-23T03:50:40;17.92;;;9.07;;
63714;SDS011;49858;48.956;9.076;2023-05-23T03:53:09;29.05;;;11.98;;
63714;SDS011;49858;48.956;9.076;2023-05-23T03:55:37;30.23;;;12.07;;
63714;SDS011;49858;48.956;9.076;2023-05-23T03:58:06;13.73;;;9.55;;
63714;SDS011;49858;48.956;9.076;2023-05-23T04:00:33;24.35;;;11.75;;
63714;SDS011;49858;48.956;9.076;2023-05-23T04:03:05;7.25;;;4.63;;
63714;SDS011;49858;48.956;9.076;2023-05-23T04:05:34;19.75;;;9.70;;
63714;SDS011;49858;48.956;9.076;2023-05-23T04:08:02;20.58;;;11.93;;
63714;SDS011;49858;48.956;9.076;2023-05-23T04:10:30;10.48;;;5.97;;
63714;SDS011;49858;48.956;9.076;2023-05-23T04:12:58;20.75;;;10.43;;
63714;SDS011;49858;48.956;9.076;2023-05-23T04:15:26;25.95;;;12.73;;
63714;SDS011;49858;48.956;9.076;2023-05-23T04:17:56;27.58;;;11.13;;
63714;SDS011;49858;48.956;9.076;2023-05-23T04:20:27;27.02;;;11.38;;
63714;SDS011;49858;48.956;9.076;2023-05-23T04:22:54;26.80;;;11.45;;
63714;SDS011;49858;48.956;9.076;2023-05-23T04:25:24;30.30;;;12.70;;
63714;SDS011;49858;48.956;9.076;2023-05-23T04:28:02;22.65;;;10.82;;
63714;SDS011;49858;48.956;9.076;2023-05-23T04:30:31;25.10;;;10.55;;
63714;SDS011;49858;48.956;9.076;2023-05-23T04:32:59;26.45;;;10.40;;
63714;SDS011;49858;48.956;9.076;2023-05-23T04:35:29;35.60;;;13.43;;
63714;SDS011;49858;48.956;9.076;2023-05-23T04:37:59;26.92;;;12.55;;
63714;SDS011;49858;48.956;9.076;2023-05-23T04:40:28;22.08;;;12.15;;
63714;SDS011;49858;48.956;9.076;2023-05-23T04:43:08;26.42;;;11.07;;
63714;SDS011;49858;48.956;9.076;2023-05-23T04:45:52;19.42;;;10.35;;
63714;SDS011;49858;48.956;9.076;2023-05-23T04:48:27;22.52;;;11.30;;
63714;SDS011;49858;48.956;9.076;2023-05-23T04:50:56;24.70;;;13.02;;
63714;SDS011;49858;48.956;9.076;2023-05-23T04:53:28;21.13;;;10.83;;
63714;SDS011;49858;48.956;9.076;2023-05-23T04:55:57;28.70;;;12.70;;
63714;SDS011;49858;48.956;9.076;2023-05-23T04:58:25;16.60;;;9.35;;
63714;SDS011;49858;48.956;9.076;2023-05-23T05:00:56;22.95;;;12.10;;
63714;SDS011;49858;48.956;9.076;2023-05-23T05:03:24;24.77;;;11.25;;
63714;SDS011;49858;48.956;9.076;2023-05-23T05:05:52;24.80;;;12.20;;
63714;SDS011;49858;48.956;9.076;2023-05-23T05:08:21;23.20;;;13.57;;
63714;SDS011;49858;48.956;9.076;2023-05-23T05:10:49;30.00;;;11.50;;
63714;SDS011;49858;48.956;9.076;2023-05-23T05:13:18;16.63;;;8.93;;
63714;SDS011;49858;48.956;9.076;2023-05-23T05:15:48;14.48;;;6.28;;
63714;SDS011;49858;48.956;9.076;2023-05-23T05:18:18;14.40;;;8.10;;
63714;SDS011;49858;48.956;9.076;2023-05-23T05:20:46;8.02;;;5.50;;
63714;SDS011;49858;48.956;9.076;2023-05-23T05:23:14;17.92;;;9.35;;
63714;SDS011;49858;48.956;9.076;2023-05-23T05:25:44;15.68;;;8.63;;
63714;SDS011;49858;48.956;9.076;2023-05-23T05:28:13;23.83;;;9.75;;
63714;SDS011;49858;48.956;9.076;2023-05-23T05:30:48;21.20;;;11.63;;
63714;SDS011;49858;48.956;9.076;2023-05-23T05:33:21;27.25;;;12.18;;
63714;SDS011;49858;48.956;9.076;2023-05-23T05:36:03;22.25;;;11.00;;
63714;SDS011;49858;48.956;9.076;2023-05-23T05:38:32;19.83;;;8.57;;
63714;SDS011;49858;48.956;9.076;2023-05-23T05:41:01;22.60;;;12.18;;
63714;SDS011;49858;48.956;9.076;2023-05-23T05:43:35;17.60;;;9.23;;
63714;SDS011;49858;48.956;9.076;2023-05-23T05:46:03;26.02;;;12.55;;
63714;SDS011;49858;48.956;9.076;2023-05-23T05:48:31;23.02;;;11.13;;
63714;SDS011;49858;48.956;9.076;2023-05-23T05:51:04;20.15;;;9.70;;
63714;SDS011;49858;48.956;9.076;2023-05-23T05:53:32;19.67;;;9.90;;
63714;SDS011;49858;48.956;9.076;2023-05-23T05:56:02;22.98;;;10.70;;
63714;SDS011;49858;48.956;9.076;2023-05-23T05:58:31;23.30;;;12.40;;
63714;SDS011;49858;48.956;9.076;2023-05-23T06:01:01;29.90;;;12.50;;
63714;SDS011;49858;48.956;9.076;2023-05-23T06:03:30;21.77;;;11.25;;
63714;SDS011;49858;48.956;9.076;2023-05-23T06:05:59;20.85;;;11.00;;
63714;SDS011;49858;48.956;9.076;2023-05-23T06:08:27;21.20;;;11.80;;
63714;SDS011;49858;48.956;9.076;2023-05-23T06:10:55;23.52;;;11.30;;
63714;SDS011;49858;48.956;9.076;2023-05-23T06:13:25;25.33;;;11.85;;
63714;SDS011;49858;48.956;9.076;2023-05-23T06:15:53;27.52;;;12.25;;
63714;SDS011;49858;48.956;9.076;2023-05-23T06:18:22;16.83;;;8.90;;
63714;SDS011;49858;48.956;9.076;2023-05-23T06:20:50;19.90;;;9.98;;
63714;SDS011;49858;48.956;9.076;2023-05-23T06:23:20;19.73;;;10.02;;
63714;SDS011;49858;48.956;9.076;2023-05-23T06:25:47;24.20;;;11.43;;
63714;SDS011;49858;48.956;9.076;2023-05-23T06:28:15;25.77;;;10.68;;
63714;SDS011;49858;48.956;9.076;2023-05-23T06:30:46;23.42;;;11.77;;
63714;SDS011;49858;48.956;9.076;2023-05-23T06:33:14;22.13;;;10.80;;
63714;SDS011;49858;48.956;9.076;2023-05-23T06:35:42;17.23;;;10.40;;
63714;SDS011;49858;48.956;9.076;2023-05-23T06:38:10;20.40;;;10.05;;
63714;SDS011;49858;48.956;9.076;2023-05-23T06:40:38;19.35;;;9.23;;
63714;SDS011;49858;48.956;9.076;2023-05-23T06:43:08;20.25;;;9.10;;
63714;SDS011;49858;48.956;9.076;2023-05-23T06:45:44;18.92;;;9.38;;
63714;SDS011;49858;48.956;9.076;2023-05-23T06:48:14;18.52;;;10.00;;
63714;SDS011;49858;48.956;9.076;2023-05-23T06:50:43;18.35;;;8.48;;
63714;SDS011;49858;48.956;9.076;2023-05-23T06:53:11;14.38;;;7.45;;
63714;SDS011;49858;48.956;9.076;2023-05-23T06:55:40;20.27;;;9.07;;
63714;SDS011;49858;48.956;9.076;2023-05-23T06:58:12;12.07;;;6.32;;
63714;SDS011;49858;48.956;9.076;2023-05-23T07:00:40;14.45;;;6.63;;
63714;SDS011;49858;48.956;9.076;2023-05-23T07:03:16;13.20;;;8.18;;
63714;SDS011;49858;48.956;9.076;2023-05-23T07:05:44;11.85;;;7.10;;
63714;SDS011;49858;48.956;9.076;2023-05-23T07:08:13;17.50;;;8.23;;
63714;SDS011;49858;48.956;9.076;2023-05-23T07:10:52;11.82;;;7.75;;
63714;SDS011;49858;48.956;9.076;2023-05-23T07:13:28;13.60;;;7.65;;
63714;SDS011;49858;48.956;9.076;2023-05-23T07:15:56;17.52;;;7.60;;
63714;SDS011;49858;48.956;9.076;2023-05-23T07:18:25;15.98;;;8.07;;
63714;SDS011;49858;48.956;9.076;2023-05-23T07:20:53;17.90;;;8.30;;
63714;SDS011;49858;48.956;9.076;2023-05-23T07:23:21;11.45;;;6.75;;
63714;SDS011;49858;48.956;9.076;2023-05-23T07:25:51;12.75;;;6.47;;
63714;SDS011;49858;48.956;9.076;2023-05-23T07:28:43;19.48;;;8.68;;
63714;SDS011;49858;48.956;9.076;2023-05-23T07:31:11;13.43;;;7.80;;
63714;SDS011;49858;48.956;9.076;2023-05-23T07:33:42;13.02;;;6.03;;
63714;SDS011;49858;48.956;9.076;2023-05-23T07:38:43;12.30;;;7.22;;
63714;SDS011;49858;48.956;9.076;2023-05-23T07:41:11;17.67;;;8.32;;
63714;SDS011;49858;48.956;9.076;2023-05-23T07:43:39;15.38;;;7.45;;
63714;SDS011;49858;48.956;9.076;2023-05-23T07:46:07;11.63;;;6.38;;
63714;SDS011;49858;48.956;9.076;2023-05-23T07:48:36;17.83;;;8.57;;
63714;SDS011;49858;48.956;9.076;2023-05-23T07:51:05;12.60;;;7.93;;
63714;SDS011;49858;48.956;9.076;2023-05-23T07:53:33;16.75;;;7.18;;
63714;SDS011;49858;48.956;9.076;2023-05-23T07:56:08;9.80;;;5.70;;
63714;SDS011;49858;48.956;9.076;2023-05-23T07:58:39;10.52;;;5.68;;
63714;SDS011;49858;48.956;9.076;2023-05-23T08:01:07;10.05;;;5.50;;
63714;SDS011;49858;48.956;9.076;2023-05-23T08:03:53;10.73;;;5.65;;
63714;SDS011;49858;48.956;9.076;2023-05-23T08:06:29;17.00;;;8.57;;
63714;SDS011;49858;48.956;9.076;2023-05-23T08:09:00;10.95;;;5.50;;
63714;SDS011;49858;48.956;9.076;2023-05-23T08:11:31;14.43;;;6.55;;
63714;SDS011;49858;48.956;9.076;2023-05-23T08:13:59;10.77;;;6.00;;
63714;SDS011;49858;48.956;9.076;2023-05-23T08:16:36;10.02;;;4.50;;
63714;SDS011;49858;48.956;9.076;2023-05-23T08:19:12;10.90;;;6.30;;
63714;SDS011;49858;48.956;9.076;2023-05-23T08:21:41;9.02;;;4.43;;
63714;SDS011;49858;48.956;9.076;2023-05-23T08:24:09;10.45;;;5.55;;
63714;SDS011;49858;48.956;9.076;2023-05-23T08:26:41;12.13;;;6.43;;
63714;SDS011;49858;48.956;9.076;2023-05-23T08:29:11;13.65;;;5.60;;
63714;SDS011;49858;48.956;9.076;2023-05-23T08:31:40;9.10;;;5.35;;
63714;SDS011;49858;48.956;9.076;2023-05-23T08:34:09;10.63;;;5.65;;
63714;SDS011;49858;48.956;9.076;2023-05-23T08:36:38;11.90;;;5.70;;
63714;SDS011;49858;48.956;9.076;2023-05-23T08:39:14;12.45;;;6.40;;
63714;SDS011;49858;48.956;9.076;2023-05-23T08:41:52;10.25;;;6.10;;
63714;SDS011;49858;48.956;9.076;2023-05-23T08:44:20;9.20;;;5.63;;
63714;SDS011;49858;48.956;9.076;2023-05-23T08:46:53;11.88;;;6.55;;
63714;SDS011;49858;48.956;9.076;2023-05-23T08:49:42;13.02;;;7.07;;
63714;SDS011;49858;48.956;9.076;2023-05-23T08:52:11;13.57;;;7.38;;
63714;SDS011;49858;48.956;9.076;2023-05-23T08:54:45;13.33;;;6.23;;
63714;SDS011;49858;48.956;9.076;2023-05-23T08:57:16;7.15;;;4.80;;
63714;SDS011;49858;48.956;9.076;2023-05-23T08:59:50;11.55;;;5.85;;
63714;SDS011;49858;48.956;9.076;2023-05-23T09:02:20;10.85;;;5.60;;
63714;SDS011;49858;48.956;9.076;2023-05-23T09:04:53;11.05;;;6.57;;
63714;SDS011;49858;48.956;9.076;2023-05-23T09:07:23;7.82;;;4.75;;
63714;SDS011;49858;48.956;9.076;2023-05-23T09:09:53;9.52;;;4.72;;
63714;SDS011;49858;48.956;9.076;2023-05-23T09:12:21;10.80;;;4.68;;
63714;SDS011;49858;48.956;9.076;2023-05-23T09:14:49;6.38;;;4.13;;
63714;SDS011;49858;48.956;9.076;2023-05-23T09:17:20;10.48;;;4.70;;
63714;SDS011;49858;48.956;9.076;2023-05-23T09:19:50;8.43;;;4.60;;
63714;SDS011;49858;48.956;9.076;2023-05-23T09:22:31;7.05;;;4.07;;
63714;SDS011;49858;48.956;9.076;2023-05-23T09:25:09;7.63;;;4.07;;
63714;SDS011;49858;48.956;9.076;2023-05-23T09:27:39;8.30;;;4.43;;
63714;SDS011;49858;48.956;9.076;2023-05-23T09:30:09;8.93;;;4.35;;
63714;SDS011;49858;48.956;9.076;2023-05-23T09:32:38;10.02;;;5.18;;
63714;SDS011;49858;48.956;9.076;2023-05-23T09:35:08;7.57;;;4.18;;
63714;SDS011;49858;48.956;9.076;2023-05-23T09:37:38;5.57;;;3.80;;
63714;SDS011;49858;48.956;9.076;2023-05-23T09:40:07;8.23;;;4.65;;
63714;SDS011;49858;48.956;9.076;2023-05-23T09:42:43;7.95;;;4.82;;
63714;SDS011;49858;48.956;9.076;2023-05-23T09:45:12;8.65;;;4.28;;
63714;SDS011;49858;48.956;9.076;2023-05-23T09:47:47;11.43;;;4.70;;
63714;SDS011;49858;48.956;9.076;2023-05-23T09:50:17;5.47;;;3.20;;
63714;SDS011;49858;48.956;9.076;2023-05-23T09:52:45;7.00;;;4.70;;
63714;SDS011;49858;48.956;9.076;2023-05-23T09:55:14;10.35;;;5.13;;
63714;SDS011;49858;48.956;9.076;2023-05-23T09:57:42;6.05;;;3.35;;
63714;SDS011;49858;48.956;9.076;2023-05-23T10:00:11;9.35;;;4.50;;
63714;SDS011;49858;48.956;9.076;2023-05-23T10:02:53;11.90;;;5.10;;
63714;SDS011;49858;48.956;9.076;2023-05-23T10:05:27;5.65;;;2.78;;
63714;SDS011;49858;48.956;9.076;2023-05-23T10:07:58;6.22;;;3.85;;
63714;SDS011;49858;48.956;9.076;2023-05-23T10:10:31;7.55;;;3.58;;
63714;SDS011;49858;48.956;9.076;2023-05-23T10:13:01;6.35;;;3.63;;
63714;SDS011;49858;48.956;9.076;2023-05-23T10:15:34;7.88;;;4.07;;
63714;SDS011;49858;48.956;9.076;2023-05-23T10:18:07;7.75;;;4.38;;
63714;SDS011;49858;48.956;9.076;2023-05-23T10:23:09;4.80;;;2.83;;
63714;SDS011;49858;48.956;9.076;2023-05-23T10:25:40;8.70;;;4.18;;
63714;SDS011;49858;48.956;9.076;2023-05-23T10:28:10;8.45;;;3.88;;
63714;SDS011;49858;48.956;9.076;2023-05-23T10:30:40;6.30;;;3.50;;
63714;SDS011;49858;48.956;9.076;2023-05-23T10:33:08;9.45;;;4.63;;
63714;SDS011;49858;48.956;9.076;2023-05-23T10:35:40;5.88;;;2.65;;
63714;SDS011;49858;48.956;9.076;2023-05-23T10:38:25;6.40;;;3.70;;
63714;SDS011;49858;48.956;9.076;2023-05-23T10:41:09;6.15;;;3.60;;
63714;SDS011;49858;48.956;9.076;2023-05-23T10:43:42;6.15;;;3.78;;
63714;SDS011;49858;48.956;9.076;2023-05-23T10:46:13;7.50;;;3.15;;
63714;SDS011;49858;48.956;9.076;2023-05-23T10:48:42;4.00;;;2.50;;
63714;SDS011;49858;48.956;9.076;2023-05-23T10:51:11;5.63;;;2.83;;
63714;SDS011;49858;48.956;9.076;2023-05-23T10:53:40;6.78;;;3.10;;
63714;SDS011;49858;48.956;9.076;2023-05-23T10:56:13;4.82;;;3.25;;
63714;SDS011;49858;48.956;9.076;2023-05-23T10:58:50;4.45;;;2.92;;
63714;SDS011;49858;48.956;9.076;2023-05-23T11:01:19;7.60;;;3.97;;
63714;SDS011;49858;48.956;9.076;2023-05-23T11:03:48;6.88;;;3.55;;
63714;SDS011;49858;48.956;9.076;2023-05-23T11:06:30;7.50;;;4.07;;
63714;SDS011;49858;48.956;9.076;2023-05-23T11:09:03;5.90;;;2.85;;
63714;SDS011;49858;48.956;9.076;2023-05-23T11:14:32;3.90;;;2.60;;
63714;SDS011;49858;48.956;9.076;2023-05-23T11:17:14;2.45;;;1.58;;
63714;SDS011;49858;48.956;9.076;2023-05-23T11:19:54;6.25;;;3.22;;
63714;SDS011;49858;48.956;9.076;2023-05-23T11:22:26;5.68;;;3.17;;
63714;SDS011;49858;48.956;9.076;2023-05-23T11:24:54;6.45;;;3.42;;
63714;SDS011;49858;48.956;9.076;2023-05-23T11:27:28;5.55;;;3.30;;
63714;SDS011;49858;48.956;9.076;2023-05-23T11:32:27;5.53;;;3.03;;
63714;SDS011;49858;48.956;9.076;2023-05-23T11:34:58;5.97;;;2.30;;
63714;SDS011;49858;48.956;9.076;2023-05-23T11:37:27;4.88;;;3.22;;
63714;SDS011;49858;48.956;9.076;2023-05-23T11:39:55;5.05;;;2.70;;
63714;SDS011;49858;48.956;9.076;2023-05-23T11:42:23;4.05;;;1.33;;
63714;SDS011;49858;48.956;9.076;2023-05-23T11:44:53;5.28;;;2.70;;
63714;SDS011;49858;48.956;9.076;2023-05-23T11:47:20;5.35;;;2.95;;
63714;SDS011;49858;48.956;9.076;2023-05-23T11:49:49;6.65;;;3.15;;
63714;SDS011;49858;48.956;9.076;2023-05-23T11:52:16;4.30;;;2.03;;
63714;SDS011;49858;48.956;9.076;2023-05-23T11:54:44;6.55;;;3.28;;
63714;SDS011;49858;48.956;9.076;2023-05-23T11:57:12;6.65;;;3.05;;
63714;SDS011;49858;48.956;9.076;2023-05-23T11:59:40;4.65;;;2.60;;
63714;SDS011;49858;48.956;9.076;2023-05-23T12:02:10;4.38;;;2.20;;
63714;SDS011;49858;48.956;9.076;2023-05-23T12:04:38;1.02;;;0.77;;
63714;SDS011;49858;48.956;9.076;2023-05-23T12:07:06;6.50;;;2.65;;
63714;SDS011;49858;48.956;9.076;2023-05-23T12:09:41;6.03;;;2.95;;
63714;SDS011;49858;48.956;9.076;2023-05-23T12:12:09;4.63;;;2.75;;
63714;SDS011;49858;48.956;9.076;2023-05-23T12:14:38;5.22;;;2.55;;
63714;SDS011;49858;48.956;9.076;2023-05-23T12:17:12;3.55;;;2.22;;
63714;SDS011;49858;48.956;9.076;2023-05-23T12:19:44;7.93;;;2.35;;
63714;SDS011;49858;48.956;9.076;2023-05-23T12:22:12;3.58;;;2.50;;
63714;SDS011;49858;48.956;9.076;2023-05-23T12:24:44;4.75;;;3.08;;
63714;SDS011;49858;48.956;9.076;2023-05-23T12:27:13;4.10;;;2.45;;
63714;SDS011;49858;48.956;9.076;2023-05-23T12:29:48;2.60;;;1.98;;
63714;SDS011;49858;48.956;9.076;2023-05-23T12:32:19;3.20;;;1.92;;
63714;SDS011;49858;48.956;9.076;2023-05-23T12:34:51;3.00;;;1.58;;
63714;SDS011;49858;48.956;9.076;2023-05-23T12:37:19;3.38;;;2.40;;
63714;SDS011;49858;48.956;9.076;2023-05-23T12:39:49;3.95;;;2.55;;
63714;SDS011;49858;48.956;9.076;2023-05-23T12:42:17;4.22;;;2.30;;
63714;SDS011;49858;48.956;9.076;2023-05-23T12:44:48;4.40;;;2.22;;
63714;SDS011;49858;48.956;9.076;2023-05-23T12:47:19;2.85;;;1.40;;
63714;SDS011;49858;48.956;9.076;2023-05-23T12:49:47;6.32;;;2.53;;
63714;SDS011;49858;48.956;9.076;2023-05-23T12:52:15;5.07;;;2.33;;
63714;SDS011;49858;48.956;9.076;2023-05-23T12:54:43;6.47;;;2.53;;
63714;SDS011;49858;48.956;9.076;2023-05-23T12:57:10;4.47;;;2.72;;
63714;SDS011;49858;48.956;9.076;2023-05-23T12:59:38;3.50;;;2.20;;
63714;SDS011;49858;48.956;9.076;2023-05-23T13:02:06;12.50;;;2.92;;
63714;SDS011;49858;48.956;9.076;2023-05-23T13:04:35;4.32;;;2.58;;
63714;SDS011;49858;48.956;9.076;2023-05-23T13:07:03;3.05;;;1.90;;
63714;SDS011;49858;48.956;9.076;2023-05-23T13:09:31;4.47;;;2.58;;
63714;SDS011;49858;48.956;9.076;2023-05-23T13:11:59;3.97;;;2.47;;
63714;SDS011;49858;48.956;9.076;2023-05-23T13:14:27;2.78;;;1.75;;
63714;SDS011;49858;48.956;9.076;2023-05-23T13:16:55;3.28;;;1.73;;
63714;SDS011;49858;48.956;9.076;2023-05-23T13:19:23;2.95;;;1.70;;
63714;SDS011;49858;48.956;9.076;2023-05-23T13:21:52;3.10;;;2.20;;
63714;SDS011;49858;48.956;9.076;2023-05-23T13:24:20;4.15;;;2.13;;
63714;SDS011;49858;48.956;9.076;2023-05-23T13:26:48;2.08;;;1.33;;
63714;SDS011;49858;48.956;9.076;2023-05-23T13:29:16;3.63;;;2.28;;
63714;SDS011;49858;48.956;9.076;2023-05-23T13:31:44;2.45;;;1.48;;
63714;SDS011;49858;48.956;9.076;2023-05-23T13:34:13;3.03;;;1.40;;
63714;SDS011;49858;48.956;9.076;2023-05-23T13:36:40;4.13;;;2.22;;
63714;SDS011;49858;48.956;9.076;2023-05-23T13:39:10;4.28;;;2.00;;
63714;SDS011;49858;48.956;9.076;2023-05-23T13:41:39;2.13;;;1.73;;
63714;SDS011;49858;48.956;9.076;2023-05-23T13:44:06;2.90;;;1.65;;
63714;SDS011;49858;48.956;9.076;2023-05-23T13:46:34;4.60;;;1.88;;
63714;SDS011;49858;48.956;9.076;2023-05-23T13:49:02;3.53;;;1.90;;
63714;SDS011;49858;48.956;9.076;2023-05-23T13:51:30;3.75;;;2.13;;
63714;SDS011;49858;48.956;9.076;2023-05-23T13:53:58;4.82;;;1.67;;
63714;SDS011;49858;48.956;9.076;2023-05-23T13:56:28;3.38;;;2.13;;
63714;SDS011;49858;48.956;9.076;2023-05-23T13:58:56;3.53;;;1.88;;
63714;SDS011;49858;48.956;9.076;2023-05-23T14:01:24;2.17;;;1.52;;
63714;SDS011;49858;48.956;9.076;2023-05-23T14:03:51;2.60;;;1.70;;
63714;SDS011;49858;48.956;9.076;2023-05-23T14:06:19;3.53;;;1.77;;
63714;SDS011;49858;48.956;9.076;2023-05-23T14:08:48;3.30;;;1.77;;
63714;SDS011;49858;48.956;9.076;2023-05-23T14:11:16;2.90;;;1.63;;
63714;SDS011;49858;48.956;9.076;2023-05-23T14:13:45;2.05;;;1.52;;
63714;SDS011;49858;48.956;9.076;2023-05-23T14:16:13;4.55;;;2.95;;
63714;SDS011;49858;48.956;9.076;2023-05-23T14:18:41;3.55;;;2.10;;
63714;SDS011;49858;48.956;9.076;2023-05-23T14:21:09;1.92;;;1.50;;
63714;SDS011;49858;48.956;9.076;2023-05-23T14:23:37;3.30;;;2.08;;
63714;SDS011;49858;48.956;9.076;2023-05-23T14:26:05;3.78;;;2.58;;
63714;SDS011;49858;48.956;9.076;2023-05-23T14:28:32;2.38;;;1.80;;
63714;SDS011;49858;48.956;9.076;2023-05-23T14:31:02;4.18;;;2.33;;
63714;SDS011;49858;48.956;9.076;2023-05-23T14:33:30;3.00;;;1.67;;
63714;SDS011;49858;48.956;9.076;2023-05-23T14:35:58;2.30;;;1.52;;
63714;SDS011;49858;48.956;9.076;2023-05-23T14:38:26;2.53;;;1.67;;
63714;SDS011;49858;48.956;9.076;2023-05-23T14:40:54;2.78;;;1.65;;
63714;SDS011;49858;48.956;9.076;2023-05-23T14:43:22;2.75;;;1.65;;
63714;SDS011;49858;48.956;9.076;2023-05-23T14:45:49;2.78;;;1.30;;
63714;SDS011;49858;48.956;9.076;2023-05-23T14:48:19;2.22;;;1.80;;
63714;SDS011;49858;48.956;9.076;2023-05-23T14:50:47;3.60;;;3.00;;
63714;SDS011;49858;48.956;9.076;2023-05-23T14:53:15;3.85;;;2.63;;
63714;SDS011;49858;48.956;9.076;2023-05-23T14:55:47;3.08;;;2.10;;
63714;SDS011;49858;48.956;9.076;2023-05-23T14:58:15;4.47;;;2.40;;
63714;SDS011;49858;48.956;9.076;2023-05-23T15:00:43;4.22;;;2.80;;
63714;SDS011;49858;48.956;9.076;2023-05-23T15:03:12;3.30;;;2.22;;
63714;SDS011;49858;48.956;9.076;2023-05-23T15:05:41;4.10;;;2.35;;